Terminal Aerodrome Forecast
Issued by NWS

Home | Current Version | Previous Version | Text Only | Print | Product List | Glossary On
Versions: 1 2 3 4 5 6 7 8 9 10 11 12 13
312
FTUS43 KLSX 311729
TAFUIN
TAF
KUIN 311729Z 3118/0118 17006KT P6SM SCT060
     FM010000 16006KT P6SM VCTS BKN060CB
     FM010200 18004KT 6SM -SHRA VCTS BKN050CB
      TEMPO 0103/0106 3SM -TSRA
     FM010800 VRB03KT P6SM VCSH SCT050 BKN100
     FM011300 32005KT P6SM SCT030 BKN100=

USA.gov is the U.S. government's official web portal to all federal, state and local government web resources and services.